createdAt,value
2023-04-20T00:02:16.711Z,4.61
2023-04-20T00:05:18.593Z,4.58
2023-04-20T00:08:20.338Z,4.55
2023-04-20T00:11:22.083Z,4.43
2023-04-20T00:14:23.823Z,4.41
2023-04-20T00:17:27.000Z,4.46
2023-04-20T00:20:28.902Z,4.51
2023-04-20T00:23:30.595Z,4.56
2023-04-20T00:26:32.395Z,4.58
2023-04-20T00:29:34.394Z,4.56
2023-04-20T00:32:37.574Z,4.56
2023-04-20T00:35:39.332Z,4.59
2023-04-20T00:38:41.178Z,4.56
2023-04-20T00:41:42.893Z,4.53
2023-04-20T00:44:44.596Z,4.58
2023-04-20T00:47:47.756Z,4.47
2023-04-20T00:50:50.330Z,4.48
2023-04-20T00:53:52.091Z,4.48
2023-04-20T00:56:54.431Z,4.48
2023-04-20T00:59:56.153Z,4.53
2023-04-20T01:02:59.591Z,4.50
2023-04-20T01:06:02.221Z,4.53
2023-04-20T01:09:04.534Z,4.58
2023-04-20T01:12:06.534Z,4.50
2023-04-20T01:15:09.214Z,4.47
2023-04-20T01:18:12.395Z,4.39
2023-04-20T01:21:15.299Z,4.38
2023-04-20T01:24:18.411Z,4.37
2023-04-20T01:27:20.300Z,4.35
2023-04-20T01:30:22.149Z,4.29
2023-04-20T01:33:23.882Z,4.29
2023-04-20T01:36:25.728Z,4.19
2023-04-20T01:39:29.056Z,4.19
2023-04-20T01:42:30.934Z,4.23
2023-04-20T01:45:32.706Z,4.18
2023-04-20T01:48:34.882Z,4.16
2023-04-20T01:51:37.341Z,4.15
2023-04-20T01:54:40.513Z,4.17
2023-04-20T01:57:42.212Z,4.16
2023-04-20T02:00:44.327Z,4.14
2023-04-20T02:03:46.418Z,4.24
2023-04-20T02:06:48.282Z,4.23
2023-04-20T02:09:51.499Z,4.19
2023-04-20T02:12:53.286Z,4.12
2023-04-20T02:15:55.039Z,4.17
2023-04-20T02:18:56.853Z,3.92
2023-04-20T02:21:58.583Z,3.90
2023-04-20T02:25:01.989Z,3.79
2023-04-20T02:28:03.990Z,3.89
2023-04-20T02:31:05.908Z,3.93
2023-04-20T02:34:07.616Z,3.81
2023-04-20T02:37:09.331Z,3.60
2023-04-20T02:40:13.235Z,3.44
2023-04-20T02:43:14.934Z,3.53
2023-04-20T02:46:17.667Z,3.34
2023-04-20T02:49:19.578Z,3.45
2023-04-20T02:52:21.523Z,3.48
2023-04-20T02:55:24.852Z,3.40
2023-04-20T02:58:26.641Z,3.34
2023-04-20T03:01:28.529Z,3.06
2023-04-20T03:04:30.524Z,3.03
2023-04-20T03:07:32.404Z,3.12
2023-04-20T03:10:35.477Z,3.06
2023-04-20T03:13:37.345Z,3.17
2023-04-20T03:16:39.281Z,3.12
2023-04-20T03:19:41.022Z,3.15
2023-04-20T03:22:42.848Z,2.92
2023-04-20T03:25:46.005Z,2.90
2023-04-20T03:28:49.777Z,2.87
2023-04-20T03:31:51.513Z,3.06
2023-04-20T03:34:53.253Z,3.00
2023-04-20T03:37:55.028Z,3.10
2023-04-20T03:40:58.203Z,3.06
2023-04-20T03:44:00.018Z,3.11
2023-04-20T03:47:01.813Z,3.05
2023-04-20T03:50:03.889Z,3.18
2023-04-20T03:53:05.689Z,3.19
2023-04-20T03:56:08.954Z,3.14
2023-04-20T03:59:10.689Z,3.26
2023-04-20T04:02:12.506Z,3.22
2023-04-20T04:05:14.370Z,3.25
2023-04-20T04:08:16.158Z,3.30
2023-04-20T04:11:19.312Z,3.23
2023-04-20T04:14:21.123Z,3.21
2023-04-20T04:17:22.984Z,3.14
2023-04-20T04:20:24.840Z,2.99
2023-04-20T04:23:26.656Z,2.94
2023-04-20T04:26:29.831Z,2.88
2023-04-20T04:29:31.576Z,2.84
2023-04-20T04:32:33.387Z,2.89
2023-04-20T04:35:35.201Z,2.96
2023-04-20T04:38:36.948Z,3.06
2023-04-20T04:41:40.044Z,3.09
2023-04-20T04:44:41.835Z,3.05
2023-04-20T04:47:43.695Z,2.90
2023-04-20T04:50:45.499Z,2.93
2023-04-20T04:53:47.298Z,3.01
2023-04-20T04:56:50.313Z,3.03
2023-04-20T04:59:52.114Z,3.08
2023-04-20T05:02:54.003Z,3.08
2023-04-20T05:05:55.851Z,3.13
2023-04-20T05:08:57.612Z,3.05
2023-04-20T05:12:00.800Z,3.01
2023-04-20T05:15:02.741Z,3.00
2023-04-20T05:18:04.776Z,2.82
2023-04-20T05:21:06.629Z,2.71
2023-04-20T05:24:08.574Z,2.70
2023-04-20T05:27:11.719Z,2.67
2023-04-20T05:30:21.450Z,2.82
2023-04-20T05:33:23.744Z,2.77
2023-04-20T05:36:25.541Z,2.62
2023-04-20T05:39:27.340Z,2.51
2023-04-20T05:42:30.478Z,2.58
2023-04-20T05:45:32.220Z,2.69
2023-04-20T05:48:34.010Z,2.74
2023-04-20T05:51:35.736Z,2.76
2023-04-20T05:54:37.576Z,2.72
2023-04-20T05:57:40.675Z,2.75
2023-04-20T06:00:42.390Z,2.72
2023-04-20T06:03:44.415Z,2.80
2023-04-20T06:06:46.351Z,2.86
2023-04-20T06:09:48.117Z,2.76
2023-04-20T06:12:51.143Z,2.91
2023-04-20T06:15:53.048Z,2.93
2023-04-20T06:18:54.915Z,3.02
2023-04-20T06:21:59.556Z,3.06
2023-04-20T06:25:03.091Z,3.11
2023-04-20T06:28:06.658Z,3.16
2023-04-20T06:31:08.465Z,3.15
2023-04-20T06:34:10.238Z,3.27
2023-04-20T06:37:12.215Z,3.31
2023-04-20T06:40:16.170Z,3.20
2023-04-20T06:43:19.476Z,3.25
2023-04-20T06:46:21.269Z,3.34
2023-04-20T06:49:23.277Z,3.39
2023-04-20T06:52:25.242Z,3.37
2023-04-20T06:55:27.066Z,3.35
2023-04-20T06:58:30.218Z,3.43
2023-04-20T07:01:32.023Z,3.58
2023-04-20T07:04:33.771Z,3.56
2023-04-20T07:07:35.593Z,3.40
2023-04-20T07:10:37.430Z,3.54
2023-04-20T07:13:40.515Z,3.53
2023-04-20T07:16:42.306Z,3.43
2023-04-20T07:19:44.074Z,3.56
2023-04-20T07:22:45.828Z,3.55
2023-04-20T07:25:47.639Z,3.55
2023-04-20T07:28:51.194Z,3.51
2023-04-20T07:31:53.057Z,3.56
2023-04-20T07:34:54.750Z,3.49
2023-04-20T07:37:56.647Z,3.51
2023-04-20T07:40:58.404Z,3.53
2023-04-20T07:44:01.569Z,3.57
2023-04-20T07:47:03.703Z,3.63
2023-04-20T07:50:06.772Z,3.53
2023-04-20T07:53:08.647Z,3.52
2023-04-20T07:56:10.402Z,3.68
2023-04-20T07:59:13.600Z,3.73
2023-04-20T08:02:16.120Z,3.86
2023-04-20T08:05:18.429Z,3.80
2023-04-20T08:08:20.444Z,3.78
2023-04-20T08:11:22.272Z,3.82
2023-04-20T08:14:25.408Z,3.89
2023-04-20T08:17:27.185Z,3.85
2023-04-20T08:20:28.886Z,3.94
2023-04-20T08:23:30.701Z,3.98
2023-04-20T08:26:33.113Z,3.97
2023-04-20T08:29:36.291Z,4.01
2023-04-20T08:32:38.113Z,4.00
2023-04-20T08:35:39.943Z,3.94
2023-04-20T08:38:41.798Z,3.99
2023-04-20T08:41:43.605Z,3.97
2023-04-20T08:44:46.807Z,4.04
2023-04-20T08:47:50.020Z,4.06
2023-04-20T08:50:51.930Z,3.99
2023-04-20T08:53:55.562Z,4.06
2023-04-20T08:56:57.317Z,4.10
2023-04-20T09:00:00.446Z,4.14
2023-04-20T09:03:02.423Z,4.13
2023-04-20T09:06:05.613Z,4.15
2023-04-20T09:09:10.296Z,4.10
2023-04-20T09:12:12.013Z,4.14
2023-04-20T09:15:26.651Z,4.29
2023-04-20T09:18:28.412Z,4.32
2023-04-20T09:21:30.185Z,4.31
2023-04-20T09:24:33.988Z,4.37
2023-04-20T09:27:35.696Z,4.34
2023-04-20T09:30:41.035Z,4.38
2023-04-20T09:33:42.821Z,4.39
2023-04-20T09:36:46.030Z,4.43
2023-04-20T09:39:47.960Z,4.36
2023-04-20T09:42:50.813Z,4.45
2023-04-20T09:45:54.880Z,4.55
2023-04-20T09:48:57.567Z,4.59
2023-04-20T09:52:02.132Z,4.57
2023-04-20T09:55:05.479Z,4.71
2023-04-20T09:58:07.231Z,4.75
2023-04-20T10:01:11.631Z,4.83
2023-04-20T10:04:13.763Z,4.91
2023-04-20T10:07:24.019Z,4.96
2023-04-20T10:10:25.952Z,5.05
2023-04-20T10:13:33.719Z,5.11
2023-04-20T10:16:36.909Z,5.14
2023-04-20T10:19:40.045Z,5.15
2023-04-20T10:22:41.838Z,5.27
2023-04-20T10:25:43.634Z,5.28
2023-04-20T10:28:45.401Z,5.33
2023-04-20T10:31:48.499Z,5.36
2023-04-20T10:35:01.506Z,5.41
2023-04-20T10:38:03.294Z,5.44
2023-04-20T10:41:08.353Z,5.57
2023-04-20T10:44:10.178Z,5.58
2023-04-20T10:47:13.385Z,5.61
2023-04-20T10:50:16.128Z,5.50
2023-04-20T10:53:19.491Z,5.61
2023-04-20T10:56:21.256Z,5.71
2023-04-20T10:59:24.828Z,5.68
2023-04-20T11:02:28.237Z,5.73
2023-04-20T11:05:30.068Z,5.86
2023-04-20T11:08:39.756Z,5.97
2023-04-20T11:11:41.506Z,6.18
2023-04-20T11:14:51.971Z,6.38
2023-04-20T11:17:55.443Z,6.50
2023-04-20T11:20:57.472Z,6.54
2023-04-20T11:23:59.450Z,6.75
2023-04-20T11:27:02.361Z,6.90
2023-04-20T11:30:05.749Z,7.10
2023-04-20T11:33:09.116Z,7.26
2023-04-20T11:36:18.947Z,7.44
2023-04-20T11:39:23.759Z,7.52
2023-04-20T11:42:25.633Z,7.67
2023-04-20T11:45:27.776Z,7.72
2023-04-20T11:48:31.797Z,7.70
2023-04-20T11:51:33.579Z,7.61
2023-04-20T11:54:35.362Z,7.72
2023-04-20T11:57:37.188Z,7.79
2023-04-20T12:00:38.982Z,7.83
2023-04-20T12:03:43.889Z,7.91
2023-04-20T12:06:47.309Z,8.06
2023-04-20T12:09:49.066Z,8.29
2023-04-20T12:12:50.898Z,8.39
2023-04-20T12:15:52.664Z,8.41
2023-04-20T12:18:55.853Z,8.70
2023-04-20T12:21:57.679Z,8.71
2023-04-20T12:24:59.441Z,9.01
2023-04-20T12:28:01.428Z,9.12
2023-04-20T12:31:03.249Z,9.20
2023-04-20T12:34:06.529Z,9.18
2023-04-20T12:37:08.361Z,9.25
2023-04-20T12:40:10.707Z,9.20
2023-04-20T12:43:12.415Z,9.22
2023-04-20T12:46:14.302Z,9.35
2023-04-20T12:49:17.733Z,9.38
2023-04-20T12:52:19.770Z,9.41
2023-04-20T12:55:21.636Z,9.67
2023-04-20T12:58:23.355Z,9.75
2023-04-20T13:01:25.258Z,10.03
2023-04-20T13:04:28.609Z,10.24
2023-04-20T13:07:30.770Z,10.34
2023-04-20T13:10:32.472Z,10.41
2023-04-20T13:13:34.235Z,10.49
2023-04-20T13:16:36.029Z,10.43
2023-04-20T13:19:39.152Z,10.52
2023-04-20T13:22:47.021Z,10.60
2023-04-20T13:25:56.448Z,10.85
2023-04-20T13:28:58.222Z,10.83
2023-04-20T13:31:59.994Z,11.07
2023-04-20T13:35:03.362Z,11.41
2023-04-20T13:38:05.426Z,11.44
2023-04-20T13:41:07.207Z,11.53
2023-04-20T13:44:08.941Z,11.49
2023-04-20T13:47:10.694Z,11.55
2023-04-20T13:50:13.829Z,11.61
2023-04-20T13:53:15.636Z,11.63
2023-04-20T13:56:17.373Z,11.75
2023-04-20T13:59:19.088Z,11.90
2023-04-20T14:02:20.951Z,12.04
2023-04-20T14:05:24.299Z,12.18
2023-04-20T14:08:26.283Z,12.20
2023-04-20T14:11:28.034Z,12.27
2023-04-20T14:14:29.905Z,12.31
2023-04-20T14:17:31.733Z,12.36
2023-04-20T14:20:34.957Z,12.35
2023-04-20T14:23:36.734Z,12.26
2023-04-20T14:26:38.550Z,12.32
2023-04-20T14:29:40.311Z,12.31
2023-04-20T14:32:42.147Z,12.20
2023-04-20T14:35:45.340Z,12.25
2023-04-20T14:38:47.086Z,12.11
2023-04-20T14:41:49.025Z,12.17
2023-04-20T14:44:50.840Z,12.13
2023-04-20T14:47:53.495Z,12.17
2023-04-20T14:50:56.665Z,12.17
2023-04-20T14:53:58.516Z,12.29
2023-04-20T14:57:01.581Z,12.26
2023-04-20T15:00:04.518Z,12.24
2023-04-20T15:03:06.423Z,11.97
2023-04-20T15:06:09.883Z,12.02
2023-04-20T15:09:11.589Z,12.01
2023-04-20T15:12:13.337Z,11.93
2023-04-20T15:15:15.486Z,12.07
2023-04-20T15:18:17.553Z,12.07
2023-04-20T15:21:22.109Z,12.14
2023-04-20T15:24:23.867Z,12.07
2023-04-20T15:27:25.585Z,12.09
2023-04-20T15:30:27.565Z,12.05
2023-04-20T15:33:29.294Z,11.97
2023-04-20T15:36:32.397Z,11.97
2023-04-20T15:39:34.181Z,12.02
2023-04-20T15:42:35.904Z,12.05
2023-04-20T15:45:37.717Z,11.98
2023-04-20T15:48:39.497Z,11.99
2023-04-20T15:51:43.870Z,12.00
2023-04-20T15:54:47.133Z,11.98
2023-04-20T15:57:48.884Z,12.10
2023-04-20T16:00:50.595Z,12.11
2023-04-20T16:03:52.478Z,12.02
2023-04-20T16:06:55.955Z,12.06
2023-04-20T16:09:57.701Z,12.04
2023-04-20T16:12:59.418Z,12.01
2023-04-20T16:16:01.237Z,12.02
2023-04-20T16:19:03.013Z,12.02
2023-04-20T16:22:06.141Z,12.00
2023-04-20T16:25:08.831Z,12.04
2023-04-20T16:28:10.620Z,12.08
2023-04-20T16:31:12.659Z,12.02
2023-04-20T16:34:14.803Z,11.91
2023-04-20T16:37:17.985Z,11.84
2023-04-20T16:40:19.935Z,11.79
2023-04-20T16:43:21.781Z,11.74
2023-04-20T16:46:23.604Z,11.78
2023-04-20T16:49:25.469Z,11.73
2023-04-20T16:52:28.546Z,11.58
2023-04-20T16:55:30.451Z,11.58
2023-04-20T16:58:32.283Z,11.57
2023-04-20T17:01:34.308Z,11.53
2023-04-20T17:04:36.099Z,11.45
2023-04-20T17:07:39.310Z,11.40
2023-04-20T17:10:41.042Z,11.40
2023-04-20T17:13:42.793Z,11.32
2023-04-20T17:16:44.560Z,11.15
2023-04-20T17:19:46.420Z,11.19
2023-04-20T17:22:49.582Z,11.12
2023-04-20T17:25:51.362Z,11.01
2023-04-20T17:28:53.402Z,11.03
2023-04-20T17:31:55.915Z,10.97
2023-04-20T17:34:57.802Z,10.83
2023-04-20T17:38:01.458Z,10.78
2023-04-20T17:41:03.342Z,10.75
2023-04-20T17:44:05.154Z,10.78
2023-04-20T17:47:09.055Z,10.70
2023-04-20T17:50:11.337Z,10.77
2023-04-20T17:53:14.980Z,10.78
2023-04-20T17:56:17.222Z,10.49
2023-04-20T17:59:19.420Z,10.56
2023-04-20T18:02:21.811Z,10.50
2023-04-20T18:05:24.413Z,10.50
2023-04-20T18:08:28.024Z,10.50
2023-04-20T18:11:33.043Z,10.49
2023-04-20T18:14:35.307Z,10.39
2023-04-20T18:17:37.722Z,10.37
2023-04-20T18:20:39.711Z,10.38
2023-04-20T18:23:43.082Z,10.40
2023-04-20T18:26:45.156Z,10.34
2023-04-20T18:29:47.371Z,10.26
2023-04-20T18:32:52.297Z,10.18
2023-04-20T18:35:54.603Z,10.12
2023-04-20T18:38:58.676Z,10.09
2023-04-20T18:42:00.546Z,10.04
2023-04-20T18:45:02.732Z,10.07
2023-04-20T18:48:07.360Z,10.02
2023-04-20T18:51:10.068Z,10.07
2023-04-20T18:54:13.888Z,9.96
2023-04-20T18:57:16.191Z,10.01
2023-04-20T19:00:20.817Z,10.02
2023-04-20T19:03:25.379Z,9.95
2023-04-20T19:06:30.908Z,9.85
2023-04-20T19:09:36.237Z,9.69
2023-04-20T19:12:40.097Z,9.60
2023-04-20T19:15:43.417Z,9.67
2023-04-20T19:18:46.216Z,9.66
2023-04-20T19:21:49.702Z,9.67
2023-04-20T19:24:53.966Z,9.62
2023-04-20T19:27:56.346Z,9.55
2023-04-20T19:30:59.935Z,9.63
2023-04-20T19:34:02.246Z,9.59
2023-04-20T19:37:04.466Z,9.49
2023-04-20T19:40:10.053Z,9.54
2023-04-20T19:43:12.895Z,9.49
2023-04-20T19:46:17.164Z,9.51
2023-04-20T19:49:20.582Z,9.55
2023-04-20T19:52:23.665Z,9.48
2023-04-20T19:55:28.406Z,9.43
2023-04-20T19:58:30.645Z,9.39
2023-04-20T20:01:35.880Z,9.39
2023-04-20T20:04:38.267Z,9.36
2023-04-20T20:07:40.426Z,9.40
2023-04-20T20:10:44.395Z,9.35
2023-04-20T20:13:46.329Z,9.22
2023-04-20T20:16:48.828Z,9.17
2023-04-20T20:19:50.656Z,9.18
2023-04-20T20:22:52.753Z,9.18
2023-04-20T20:25:56.345Z,9.12
2023-04-20T20:28:58.471Z,8.99
2023-04-20T20:32:00.215Z,9.01
2023-04-20T20:35:02.177Z,9.10
2023-04-20T20:38:04.157Z,9.02
2023-04-20T20:41:07.307Z,8.82
2023-04-20T20:44:09.189Z,8.90
2023-04-20T20:47:10.985Z,8.85
2023-04-20T20:50:14.352Z,8.77
2023-04-20T20:53:16.219Z,8.81
2023-04-20T20:56:19.298Z,8.72
2023-04-20T20:59:21.283Z,8.69
2023-04-20T21:02:23.185Z,8.67
2023-04-20T21:05:25.103Z,8.83
2023-04-20T21:08:26.921Z,8.81
2023-04-20T21:11:30.092Z,8.88
2023-04-20T21:14:32.073Z,8.77
2023-04-20T21:17:33.854Z,8.79
2023-04-20T21:20:35.736Z,8.68
2023-04-20T21:23:37.447Z,8.75
2023-04-20T21:26:40.601Z,8.70
2023-04-20T21:29:42.375Z,8.64
2023-04-20T21:32:44.177Z,8.63
2023-04-20T21:35:45.964Z,8.50
2023-04-20T21:38:47.832Z,8.47
2023-04-20T21:41:50.919Z,8.54
2023-04-20T21:44:52.700Z,8.57
2023-04-20T21:47:54.529Z,8.58
2023-04-20T21:50:56.257Z,8.59
2023-04-20T21:53:58.009Z,8.65
2023-04-20T21:57:01.201Z,8.55
2023-04-20T22:00:03.237Z,8.61
2023-04-20T22:03:05.382Z,8.56
2023-04-20T22:06:07.324Z,8.60
2023-04-20T22:09:09.205Z,8.71
2023-04-20T22:12:12.309Z,8.50
2023-04-20T22:15:14.460Z,8.45
2023-04-20T22:18:16.237Z,8.40
2023-04-20T22:21:18.022Z,8.45
2023-04-20T22:24:19.790Z,8.37
2023-04-20T22:27:22.973Z,8.56
2023-04-20T22:30:24.768Z,8.53
2023-04-20T22:33:26.595Z,8.51
2023-04-20T22:36:28.398Z,8.41
2023-04-20T22:39:30.115Z,8.46
2023-04-20T22:42:33.266Z,8.43
2023-04-20T22:45:35.023Z,8.44
2023-04-20T22:48:36.764Z,8.47
2023-04-20T22:51:38.578Z,8.45
2023-04-20T22:54:40.434Z,8.49
2023-04-20T22:57:43.535Z,8.39
2023-04-20T23:00:45.323Z,8.37
2023-04-20T23:03:47.257Z,8.33
2023-04-20T23:06:49.101Z,8.36
2023-04-20T23:09:50.835Z,8.37
2023-04-20T23:12:54.113Z,8.32
2023-04-20T23:15:55.802Z,8.19
2023-04-20T23:18:57.580Z,8.15
2023-04-20T23:21:59.315Z,8.13
2023-04-20T23:25:01.093Z,8.18
2023-04-20T23:28:04.487Z,8.20
2023-04-20T23:31:06.229Z,8.20
2023-04-20T23:34:08.013Z,8.18
2023-04-20T23:37:09.745Z,8.15
2023-04-20T23:40:11.837Z,8.16
2023-04-20T23:43:14.928Z,8.13
2023-04-20T23:46:16.707Z,7.98
2023-04-20T23:49:18.761Z,8.08
2023-04-20T23:52:20.701Z,8.03
2023-04-20T23:55:22.578Z,8.03
2023-04-20T23:58:26.664Z,8.03
